createdAt,value
2022-07-30T00:01:42.285Z,1.38
2022-07-30T00:04:09.126Z,2.05
2022-07-30T00:06:37.889Z,2.08
2022-07-30T00:09:04.697Z,1.75
2022-07-30T00:11:31.464Z,2.60
2022-07-30T00:13:58.247Z,3.70
2022-07-30T00:16:24.995Z,4.35
2022-07-30T00:18:52.109Z,2.53
2022-07-30T00:21:36.260Z,2.45
2022-07-30T00:24:06.534Z,1.92
2022-07-30T00:26:33.596Z,1.40
2022-07-30T00:29:00.430Z,3.65
2022-07-30T00:31:27.196Z,6.38
2022-07-30T00:33:53.956Z,4.20
2022-07-30T00:36:20.817Z,2.10
2022-07-30T00:38:47.622Z,0.70
2022-07-30T00:41:15.537Z,5.43
2022-07-30T00:43:42.701Z,1.00
2022-07-30T00:46:09.550Z,2.15
2022-07-30T00:48:36.533Z,1.60
2022-07-30T00:51:03.530Z,2.72
2022-07-30T00:53:30.846Z,1.88
2022-07-30T00:55:57.587Z,3.72
2022-07-30T00:58:24.908Z,2.90
2022-07-30T01:00:51.783Z,1.10
2022-07-30T01:03:18.705Z,2.72
2022-07-30T01:05:45.503Z,4.82
2022-07-30T01:08:12.521Z,1.20
2022-07-30T01:10:39.286Z,2.25
2022-07-30T01:13:07.761Z,3.00
2022-07-30T01:15:35.044Z,2.45
2022-07-30T01:18:05.229Z,3.78
2022-07-30T01:20:59.353Z,3.42
2022-07-30T01:23:37.567Z,2.72
2022-07-30T01:26:14.972Z,4.00
2022-07-30T01:28:50.119Z,1.85
2022-07-30T01:31:18.996Z,1.30
2022-07-30T01:33:48.661Z,6.57
2022-07-30T01:36:18.329Z,3.05
2022-07-30T01:38:46.727Z,2.40
2022-07-30T01:41:15.278Z,1.42
2022-07-30T01:43:46.868Z,1.33
2022-07-30T01:46:16.512Z,6.13
2022-07-30T01:48:45.436Z,2.33
2022-07-30T01:51:13.768Z,4.53
2022-07-30T01:53:42.892Z,1.73
2022-07-30T01:56:13.645Z,6.25
2022-07-30T01:58:46.418Z,3.85
2022-07-30T02:01:13.467Z,3.13
2022-07-30T02:03:40.341Z,2.10
2022-07-30T02:06:21.145Z,4.82
2022-07-30T02:08:58.930Z,5.07
2022-07-30T02:11:44.547Z,1.00
2022-07-30T02:14:26.864Z,4.03
2022-07-30T02:16:56.444Z,3.38
2022-07-30T02:19:32.897Z,3.17
2022-07-30T02:22:08.650Z,2.15
2022-07-30T02:24:38.754Z,1.92
2022-07-30T02:27:16.900Z,4.57
2022-07-30T02:29:45.919Z,3.90
2022-07-30T02:32:16.161Z,2.00
2022-07-30T02:34:44.777Z,1.80
2022-07-30T02:37:12.474Z,2.25
2022-07-30T02:39:41.698Z,5.28
2022-07-30T02:42:10.107Z,1.92
2022-07-30T02:44:38.507Z,7.57
2022-07-30T02:47:07.146Z,3.20
2022-07-30T02:49:35.777Z,2.72
2022-07-30T02:52:04.017Z,4.18
2022-07-30T02:54:32.519Z,4.88
2022-07-30T02:57:01.599Z,2.00
2022-07-30T02:59:30.492Z,2.15
2022-07-30T03:01:58.871Z,2.55
2022-07-30T03:04:26.920Z,3.03
2022-07-30T03:06:55.691Z,2.85
2022-07-30T03:09:22.615Z,2.28
2022-07-30T03:11:52.560Z,2.42
2022-07-30T03:14:19.724Z,1.58
2022-07-30T03:16:57.844Z,1.48
2022-07-30T03:19:29.140Z,2.72
2022-07-30T03:21:57.074Z,2.85
2022-07-30T03:24:25.492Z,2.50
2022-07-30T03:26:55.562Z,2.60
2022-07-30T03:29:24.637Z,4.25
2022-07-30T03:31:52.622Z,7.50
2022-07-30T03:34:22.566Z,3.67
2022-07-30T03:36:52.291Z,2.97
2022-07-30T03:39:20.204Z,1.52
2022-07-30T03:41:48.193Z,2.65
2022-07-30T03:44:15.985Z,2.35
2022-07-30T03:46:45.586Z,1.67
2022-07-30T03:49:13.042Z,4.05
2022-07-30T03:51:40.321Z,2.97
2022-07-30T03:54:13.256Z,3.65
2022-07-30T03:56:41.029Z,8.40
2022-07-30T03:59:08.177Z,3.15
2022-07-30T04:01:35.076Z,3.80
2022-07-30T04:04:06.384Z,5.20
2022-07-30T04:06:36.498Z,5.03
2022-07-30T04:09:03.334Z,4.55
2022-07-30T04:11:40.662Z,4.30
2022-07-30T04:14:09.508Z,4.88
2022-07-30T04:16:48.701Z,4.20
2022-07-30T04:19:38.848Z,10.05
2022-07-30T04:22:07.984Z,5.57
2022-07-30T04:24:36.006Z,6.10
2022-07-30T04:27:04.162Z,6.45
2022-07-30T04:29:31.368Z,10.35
2022-07-30T04:31:58.548Z,3.97
2022-07-30T04:34:25.271Z,6.18
2022-07-30T04:36:52.025Z,5.05
2022-07-30T04:39:18.815Z,7.40
2022-07-30T04:41:48.402Z,5.38
2022-07-30T04:44:18.251Z,11.15
2022-07-30T04:46:45.385Z,7.45
2022-07-30T04:49:13.971Z,9.23
2022-07-30T04:51:41.147Z,14.40
2022-07-30T04:54:15.366Z,9.90
2022-07-30T04:57:00.906Z,7.82
2022-07-30T04:59:28.003Z,12.38
2022-07-30T05:01:57.511Z,6.68
2022-07-30T05:04:25.321Z,16.42
2022-07-30T05:06:53.702Z,9.65
2022-07-30T05:09:20.922Z,7.90
2022-07-30T05:11:51.781Z,12.50
2022-07-30T05:14:18.788Z,12.65
2022-07-30T05:16:45.921Z,14.55
2022-07-30T05:19:13.179Z,7.97
2022-07-30T05:21:39.999Z,16.80
2022-07-30T05:24:07.181Z,12.50
2022-07-30T05:26:33.966Z,19.45
2022-07-30T05:29:01.071Z,7.32
2022-07-30T05:31:31.136Z,11.77
2022-07-30T05:34:03.062Z,11.18
2022-07-30T05:36:30.815Z,8.52
2022-07-30T05:38:57.573Z,12.23
2022-07-30T05:41:32.815Z,6.55
2022-07-30T05:44:00.738Z,6.28
2022-07-30T05:46:27.885Z,15.85
2022-07-30T05:48:54.770Z,14.38
2022-07-30T05:51:22.230Z,16.13
2022-07-30T05:53:49.814Z,8.68
2022-07-30T05:56:16.655Z,9.23
2022-07-30T05:58:43.508Z,15.30
2022-07-30T06:01:10.359Z,10.05
2022-07-30T06:03:38.964Z,8.68
2022-07-30T06:06:07.113Z,9.02
2022-07-30T06:08:34.207Z,10.18
2022-07-30T06:11:01.009Z,10.35
2022-07-30T06:13:27.901Z,12.27
2022-07-30T06:15:54.805Z,6.57
2022-07-30T06:18:23.166Z,6.13
2022-07-30T06:20:51.838Z,7.00
2022-07-30T06:23:19.376Z,9.05
2022-07-30T06:25:49.840Z,9.45
2022-07-30T06:28:37.100Z,13.02
2022-07-30T06:31:04.807Z,4.10
2022-07-30T06:33:31.590Z,9.70
2022-07-30T06:35:58.677Z,12.45
2022-07-30T06:38:25.452Z,12.73
2022-07-30T06:40:52.280Z,5.82
2022-07-30T06:43:20.318Z,4.93
2022-07-30T06:45:47.192Z,7.28
2022-07-30T06:48:13.928Z,5.03
2022-07-30T06:50:41.785Z,3.15
2022-07-30T06:53:08.598Z,3.67
2022-07-30T06:55:35.402Z,5.35
2022-07-30T06:58:02.344Z,4.93
2022-07-30T07:00:29.188Z,10.30
2022-07-30T07:02:55.945Z,3.25
2022-07-30T07:05:23.645Z,3.97
2022-07-30T07:07:58.843Z,3.78
2022-07-30T07:10:26.800Z,4.45
2022-07-30T07:12:53.726Z,4.00
2022-07-30T07:15:22.351Z,4.00
2022-07-30T07:18:03.629Z,8.50
2022-07-30T07:20:30.417Z,4.85
2022-07-30T07:22:57.568Z,7.00
2022-07-30T07:25:24.605Z,13.20
2022-07-30T07:28:12.817Z,2.92
2022-07-30T07:30:38.201Z,4.90
2022-07-30T07:33:05.070Z,3.30
2022-07-30T07:35:31.899Z,5.00
2022-07-30T07:38:12.490Z,9.70
2022-07-30T07:40:39.237Z,6.95
2022-07-30T07:43:06.125Z,9.48
2022-07-30T07:45:33.003Z,2.60
2022-07-30T07:47:59.749Z,3.65
2022-07-30T07:50:26.495Z,5.68
2022-07-30T07:52:53.237Z,4.10
2022-07-30T07:55:23.206Z,5.55
2022-07-30T07:57:50.929Z,3.88
2022-07-30T08:00:18.424Z,5.47
2022-07-30T08:02:45.377Z,5.60
2022-07-30T08:05:12.730Z,2.35
2022-07-30T08:07:40.888Z,6.22
2022-07-30T08:10:08.492Z,2.00
2022-07-30T08:12:35.979Z,3.45
2022-07-30T08:15:03.613Z,4.57
2022-07-30T08:17:30.485Z,3.65
2022-07-30T08:20:01.190Z,4.38
2022-07-30T08:22:28.179Z,6.03
2022-07-30T08:24:55.584Z,2.88
2022-07-30T08:27:22.369Z,2.58
2022-07-30T08:29:49.231Z,4.10
2022-07-30T08:32:15.974Z,5.05
2022-07-30T08:34:42.797Z,5.07
2022-07-30T08:37:09.627Z,4.13
2022-07-30T08:39:36.448Z,3.90
2022-07-30T08:42:04.778Z,5.30
2022-07-30T08:44:33.340Z,2.78
2022-07-30T08:47:03.475Z,3.45
2022-07-30T08:49:31.777Z,4.60
2022-07-30T08:51:59.144Z,5.05
2022-07-30T08:54:26.450Z,4.28
2022-07-30T08:56:54.232Z,2.63
2022-07-30T08:59:23.894Z,2.92
2022-07-30T09:01:52.073Z,4.35
2022-07-30T09:04:18.881Z,2.45
2022-07-30T09:06:46.057Z,4.57
2022-07-30T09:09:14.892Z,1.40
2022-07-30T09:11:41.697Z,5.47
2022-07-30T09:14:10.148Z,1.50
2022-07-30T09:16:37.151Z,2.65
2022-07-30T09:19:18.387Z,2.78
2022-07-30T09:21:58.953Z,6.47
2022-07-30T09:24:26.632Z,3.38
2022-07-30T09:26:57.176Z,3.72
2022-07-30T09:29:29.308Z,2.28
2022-07-30T09:32:05.244Z,2.38
2022-07-30T09:34:37.363Z,2.22
2022-07-30T09:37:17.979Z,1.77
2022-07-30T09:39:56.261Z,2.65
2022-07-30T09:42:29.471Z,4.68
2022-07-30T09:45:10.458Z,2.67
2022-07-30T09:47:45.463Z,4.15
2022-07-30T09:50:29.472Z,2.75
2022-07-30T09:53:09.667Z,1.40
2022-07-30T09:55:41.402Z,3.60
2022-07-30T09:58:12.961Z,6.20
2022-07-30T10:00:48.668Z,3.60
2022-07-30T10:03:34.234Z,1.58
2022-07-30T10:06:11.186Z,1.13
2022-07-30T10:08:51.826Z,2.20
2022-07-30T10:11:23.860Z,5.68
2022-07-30T10:13:59.230Z,2.15
2022-07-30T10:16:28.124Z,2.35
2022-07-30T10:18:57.766Z,1.50
2022-07-30T10:21:26.350Z,2.08
2022-07-30T10:23:53.838Z,3.30
2022-07-30T10:26:21.295Z,3.30
2022-07-30T10:28:49.481Z,6.50
2022-07-30T10:31:49.466Z,6.03
2022-07-30T10:34:04.556Z,3.05
2022-07-30T10:36:32.604Z,2.83
2022-07-30T10:39:00.393Z,3.70
2022-07-30T10:41:56.691Z,4.50
2022-07-30T10:44:38.965Z,3.42
2022-07-30T10:47:10.591Z,2.20
2022-07-30T10:49:41.530Z,4.78
2022-07-30T10:54:47.505Z,1.00
2022-07-30T10:57:23.050Z,1.63
2022-07-30T11:00:03.950Z,1.65
2022-07-30T11:02:35.497Z,3.72
2022-07-30T11:05:18.311Z,3.07
2022-07-30T11:10:40.211Z,4.22
2022-07-30T11:13:08.845Z,4.07
2022-07-30T11:16:00.351Z,3.83
2022-07-30T11:18:28.817Z,2.22
2022-07-30T11:21:17.204Z,2.42
2022-07-30T11:23:46.497Z,3.35
2022-07-30T11:29:34.848Z,2.03
2022-07-30T11:32:29.693Z,2.20
2022-07-30T11:35:16.817Z,6.40
2022-07-30T11:38:05.229Z,2.15
2022-07-30T11:41:02.685Z,2.35
2022-07-30T11:43:35.662Z,1.20
2022-07-30T11:46:10.949Z,2.50
2022-07-30T11:48:43.029Z,3.67
2022-07-30T11:51:10.385Z,2.47
2022-07-30T11:53:37.654Z,2.75
2022-07-30T11:56:04.726Z,2.88
2022-07-30T11:58:34.131Z,3.28
2022-07-30T12:01:03.494Z,1.55
2022-07-30T12:03:41.290Z,4.68
2022-07-30T12:06:13.794Z,8.10
2022-07-30T12:08:45.354Z,3.50
2022-07-30T12:11:13.107Z,1.47
2022-07-30T12:13:45.409Z,3.95
2022-07-30T12:16:17.632Z,1.52
2022-07-30T12:18:45.850Z,1.20
2022-07-30T12:21:16.135Z,2.42
2022-07-30T12:23:53.745Z,2.28
2022-07-30T12:26:22.489Z,1.80
2022-07-30T12:28:49.597Z,3.67
2022-07-30T12:31:17.405Z,5.13
2022-07-30T12:33:44.657Z,2.42
2022-07-30T12:36:27.592Z,2.00
2022-07-30T12:38:54.725Z,1.25
2022-07-30T12:41:22.584Z,0.90
2022-07-30T12:43:54.350Z,4.57
2022-07-30T12:46:28.532Z,6.65
2022-07-30T12:48:58.474Z,4.25
2022-07-30T12:51:49.296Z,2.22
2022-07-30T12:54:19.412Z,2.35
2022-07-30T12:57:01.281Z,1.38
2022-07-30T12:59:29.633Z,1.02
2022-07-30T13:01:58.179Z,1.10
2022-07-30T13:04:25.186Z,2.72
2022-07-30T13:07:24.708Z,2.90
2022-07-30T13:10:10.176Z,1.20
2022-07-30T13:12:37.138Z,1.73
2022-07-30T13:15:05.598Z,1.65
2022-07-30T13:17:36.198Z,2.25
2022-07-30T13:22:31.556Z,1.48
2022-07-30T13:24:58.684Z,2.95
2022-07-30T13:27:25.549Z,2.03
2022-07-30T13:29:52.286Z,1.42
2022-07-30T13:32:19.093Z,4.43
2022-07-30T13:34:45.978Z,4.28
2022-07-30T13:37:12.764Z,2.80
2022-07-30T13:39:39.508Z,1.10
2022-07-30T13:42:06.338Z,3.08
2022-07-30T13:44:33.180Z,2.58
2022-07-30T13:47:01.901Z,1.25
2022-07-30T13:49:29.140Z,2.33
2022-07-30T13:51:57.071Z,1.70
2022-07-30T13:54:23.810Z,3.08
2022-07-30T13:56:50.575Z,1.50
2022-07-30T13:59:17.596Z,3.05
2022-07-30T14:01:44.407Z,4.60
2022-07-30T14:04:11.249Z,4.22
2022-07-30T14:06:37.989Z,4.90
2022-07-30T14:09:04.836Z,3.97
2022-07-30T14:11:32.175Z,3.25
2022-07-30T14:13:58.982Z,4.72
2022-07-30T14:16:44.191Z,2.80
2022-07-30T14:19:22.581Z,1.92
2022-07-30T14:21:52.666Z,8.82
2022-07-30T14:24:20.152Z,1.38
2022-07-30T14:26:46.959Z,1.30
2022-07-30T14:29:13.960Z,2.90
2022-07-30T14:31:40.922Z,1.88
2022-07-30T14:34:08.022Z,2.17
2022-07-30T14:36:34.916Z,1.48
2022-07-30T14:39:04.092Z,2.03
2022-07-30T14:41:31.715Z,1.38
2022-07-30T14:43:58.511Z,2.55
2022-07-30T14:46:25.261Z,3.50
2022-07-30T14:48:52.115Z,1.52
2022-07-30T14:51:24.285Z,3.13
2022-07-30T14:53:53.160Z,6.88
2022-07-30T14:56:21.394Z,4.90
2022-07-30T14:58:48.149Z,3.22
2022-07-30T15:01:16.255Z,1.40
2022-07-30T15:03:45.094Z,1.17
2022-07-30T15:06:12.979Z,1.17
2022-07-30T15:08:39.930Z,1.35
2022-07-30T15:11:07.921Z,3.58
2022-07-30T15:13:35.778Z,1.70
2022-07-30T15:16:03.307Z,1.23
2022-07-30T15:18:30.141Z,1.30
2022-07-30T15:20:56.937Z,1.45
2022-07-30T15:23:23.730Z,3.38
2022-07-30T15:25:50.573Z,2.25
2022-07-30T15:28:17.714Z,6.97
2022-07-30T15:30:44.497Z,1.05
2022-07-30T15:33:11.552Z,0.80
2022-07-30T15:35:38.304Z,3.15
2022-07-30T15:38:05.088Z,1.48
2022-07-30T15:40:31.845Z,3.20
2022-07-30T15:42:59.024Z,1.25
2022-07-30T15:45:25.829Z,0.77
2022-07-30T15:47:52.592Z,0.70
2022-07-30T15:50:19.370Z,0.80
2022-07-30T15:52:46.183Z,0.50
2022-07-30T15:55:12.962Z,1.75
2022-07-30T15:57:41.820Z,1.40
2022-07-30T16:00:09.412Z,0.60
2022-07-30T16:02:37.199Z,3.53
2022-07-30T16:05:04.638Z,0.75
2022-07-30T16:07:31.481Z,1.00
2022-07-30T16:09:58.237Z,1.02
2022-07-30T16:12:25.471Z,0.90
2022-07-30T16:14:52.451Z,0.40
2022-07-30T16:17:19.252Z,1.98
2022-07-30T16:19:46.093Z,1.55
2022-07-30T16:22:14.929Z,3.00
2022-07-30T16:27:11.905Z,1.48
2022-07-30T16:29:38.650Z,0.70
2022-07-30T16:32:06.282Z,1.23
2022-07-30T16:34:33.436Z,0.50
2022-07-30T16:37:00.411Z,3.38
2022-07-30T16:39:31.824Z,1.80
2022-07-30T16:41:58.663Z,0.50
2022-07-30T16:44:27.067Z,1.60
2022-07-30T16:46:53.819Z,0.50
2022-07-30T16:49:20.634Z,4.40
2022-07-30T16:51:47.509Z,1.75
2022-07-30T16:54:14.280Z,0.73
2022-07-30T16:56:41.063Z,0.65
2022-07-30T16:59:13.231Z,2.72
2022-07-30T17:01:40.721Z,1.45
2022-07-30T17:04:07.494Z,0.85
2022-07-30T17:06:35.559Z,1.15
2022-07-30T17:09:02.529Z,0.77
2022-07-30T17:11:47.143Z,0.70
2022-07-30T17:14:15.397Z,1.05
2022-07-30T17:16:42.295Z,0.90
2022-07-30T17:19:09.631Z,0.80
2022-07-30T17:21:37.932Z,1.13
2022-07-30T17:24:11.018Z,0.77
2022-07-30T17:26:43.340Z,2.10
2022-07-30T17:31:44.838Z,0.98
2022-07-30T17:34:13.939Z,7.43
2022-07-30T17:36:44.320Z,0.88
2022-07-30T17:40:06.058Z,2.80
2022-07-30T17:42:05.839Z,3.35
2022-07-30T17:44:32.618Z,0.80
2022-07-30T17:46:59.506Z,0.55
2022-07-30T17:49:26.332Z,0.80
2022-07-30T17:51:53.268Z,0.82
2022-07-30T17:54:20.004Z,1.58
2022-07-30T17:56:46.745Z,1.33
2022-07-30T17:59:14.109Z,0.90
2022-07-30T18:01:41.102Z,0.70
2022-07-30T18:04:07.893Z,0.70
2022-07-30T18:06:35.155Z,1.17
2022-07-30T18:09:02.492Z,1.05
2022-07-30T18:11:29.231Z,0.95
2022-07-30T18:13:56.849Z,2.08
2022-07-30T18:16:24.831Z,1.23
2022-07-30T18:18:51.779Z,1.05
2022-07-30T18:21:18.728Z,0.95
2022-07-30T18:23:45.728Z,1.10
2022-07-30T18:26:12.717Z,1.38
2022-07-30T18:28:39.513Z,1.88
2022-07-30T18:31:06.586Z,1.75
2022-07-30T18:33:33.455Z,1.77
2022-07-30T18:36:00.448Z,1.33
2022-07-30T18:38:27.295Z,9.35
2022-07-30T18:41:00.276Z,2.05
2022-07-30T18:43:28.471Z,1.92
2022-07-30T18:45:56.224Z,1.65
2022-07-30T18:48:23.345Z,1.27
2022-07-30T18:50:50.559Z,5.32
2022-07-30T18:53:17.596Z,2.42
2022-07-30T18:55:45.258Z,3.25
2022-07-30T18:58:15.276Z,4.70
2022-07-30T19:00:44.019Z,3.28
2022-07-30T19:03:16.458Z,3.30
2022-07-30T19:05:46.446Z,2.17
2022-07-30T19:08:13.212Z,5.25
2022-07-30T19:10:40.128Z,1.80
2022-07-30T19:13:07.092Z,2.38
2022-07-30T19:15:34.143Z,1.55
2022-07-30T19:18:01.083Z,2.15
2022-07-30T19:20:28.093Z,6.10
2022-07-30T19:23:03.057Z,3.88
2022-07-30T19:25:31.031Z,2.05
2022-07-30T19:27:58.190Z,1.20
2022-07-30T19:30:25.061Z,1.25
2022-07-30T19:32:52.034Z,1.77
2022-07-30T19:35:19.128Z,1.10
2022-07-30T19:37:46.887Z,2.65
2022-07-30T19:40:14.145Z,1.00
2022-07-30T19:42:41.884Z,4.63
2022-07-30T19:45:11.567Z,3.80
2022-07-30T19:47:39.281Z,2.70
2022-07-30T19:50:08.046Z,1.40
2022-07-30T19:52:36.262Z,2.55
2022-07-30T19:55:03.914Z,2.85
2022-07-30T19:57:54.318Z,2.17
2022-07-30T20:00:25.007Z,0.98
2022-07-30T20:02:52.949Z,5.05
2022-07-30T20:05:20.290Z,3.63
2022-07-30T20:07:51.839Z,2.57
2022-07-30T20:10:19.571Z,1.95
2022-07-30T20:12:49.601Z,2.92
2022-07-30T20:15:17.520Z,3.47
2022-07-30T20:17:46.348Z,1.08
2022-07-30T20:20:13.986Z,1.27
2022-07-30T20:22:41.534Z,1.50
2022-07-30T20:25:10.652Z,4.68
2022-07-30T20:27:40.376Z,1.00
2022-07-30T20:30:09.108Z,3.38
2022-07-30T20:32:37.151Z,1.30
2022-07-30T20:35:04.276Z,1.25
2022-07-30T20:37:32.702Z,1.52
2022-07-30T20:40:08.651Z,2.08
2022-07-30T20:42:35.608Z,3.50
2022-07-30T20:45:03.661Z,2.70
2022-07-30T20:47:34.817Z,4.63
2022-07-30T20:50:11.322Z,1.73
2022-07-30T20:52:46.692Z,2.55
2022-07-30T20:55:19.154Z,2.35
2022-07-30T20:57:58.711Z,2.88
2022-07-30T21:00:36.839Z,3.78
2022-07-30T21:03:05.582Z,2.80
2022-07-30T21:05:32.525Z,4.95
2022-07-30T21:07:59.430Z,1.95
2022-07-30T21:10:27.841Z,4.53
2022-07-30T21:15:45.369Z,2.15
2022-07-30T21:18:28.460Z,1.75
2022-07-30T21:20:56.967Z,6.78
2022-07-30T21:23:24.811Z,2.97
2022-07-30T21:26:00.593Z,6.13
2022-07-30T21:28:29.277Z,1.98
2022-07-30T21:30:57.402Z,2.40
2022-07-30T21:33:24.488Z,2.03
2022-07-30T21:35:58.161Z,2.88
2022-07-30T21:38:26.716Z,9.55
2022-07-30T21:40:54.152Z,4.10
2022-07-30T21:43:28.760Z,1.88
2022-07-30T21:45:57.950Z,2.95
2022-07-30T21:48:26.589Z,4.53
2022-07-30T21:50:54.590Z,1.05
2022-07-30T21:53:29.428Z,2.08
2022-07-30T21:56:09.372Z,4.00
2022-07-30T21:58:36.160Z,2.55
2022-07-30T22:01:17.998Z,1.73
2022-07-30T22:04:01.600Z,1.42
2022-07-30T22:06:35.568Z,1.52
2022-07-30T22:09:18.106Z,2.90
2022-07-30T22:11:46.943Z,2.85
2022-07-30T22:14:13.897Z,1.38
2022-07-30T22:16:46.030Z,2.13
2022-07-30T22:19:14.671Z,3.35
2022-07-30T22:21:46.490Z,2.92
2022-07-30T22:24:29.215Z,2.03
2022-07-30T22:27:00.045Z,1.75
2022-07-30T22:29:34.126Z,3.88
2022-07-30T22:32:14.993Z,2.15
2022-07-30T22:34:42.230Z,2.95
2022-07-30T22:37:12.810Z,1.85
2022-07-30T22:39:50.667Z,2.83
2022-07-30T22:42:24.424Z,2.78
2022-07-30T22:44:52.577Z,2.63
2022-07-30T22:47:21.409Z,1.85
2022-07-30T22:50:06.715Z,1.45
2022-07-30T22:52:44.395Z,2.67
2022-07-30T22:55:26.603Z,2.60
2022-07-30T22:57:53.860Z,3.33
2022-07-30T23:00:28.153Z,2.00
2022-07-30T23:02:56.442Z,1.92
2022-07-30T23:05:24.070Z,2.45
2022-07-30T23:07:51.282Z,4.30
2022-07-30T23:10:20.514Z,2.03
2022-07-30T23:12:31.693Z,2.10
2022-07-30T23:12:51.248Z,5.55
2022-07-30T23:15:19.856Z,1.80
2022-07-30T23:17:47.033Z,2.55
2022-07-30T23:20:16.847Z,2.42
2022-07-30T23:22:43.685Z,3.15
2022-07-30T23:25:11.268Z,1.73
2022-07-30T23:27:39.550Z,4.53
2022-07-30T23:30:11.028Z,2.25
2022-07-30T23:32:39.794Z,4.68
2022-07-30T23:35:08.865Z,2.90
2022-07-30T23:37:48.376Z,4.63
2022-07-30T23:40:17.297Z,3.88
2022-07-30T23:42:44.377Z,3.60
2022-07-30T23:45:11.387Z,1.00
2022-07-30T23:48:01.369Z,2.47
2022-07-30T23:50:25.589Z,1.90
2022-07-30T23:52:52.334Z,3.40
2022-07-30T23:55:19.194Z,3.17
2022-07-30T23:57:45.962Z,3.45
